Time;durP1;ratioP1;P1;durP2;ratioP2;P2;SDS_P1;SDS_P2;PMS_P1;PMS_P2;Temp;Humidity;BMP_temperature;BMP_pressure;BME280_temperature;BME280_humidity;BME280_pressure;Samples;Min_cycle;Max_cycle;Signal;HPM_P1;HPM_P2
2022/04/05 00:02:16;;;;;;;6.60;2.50;;;;;;;;;;5097932;28;20586;-75
2022/04/05 00:04:46;;;;;;;10.38;2.53;;;;;;;;;;5109531;28;20737;-76
2022/04/05 00:07:16;;;;;;;5.40;2.88;;;;;;;;;;5110190;28;20043;-76
2022/04/05 00:09:46;;;;;;;4.85;2.33;;;;;;;;;;5109297;28;20063;-75
2022/04/05 00:12:20;;;;;;;7.32;2.58;;;;;;;;;;5102901;28;20043;-76
2022/04/05 00:14:50;;;;;;;12.80;2.60;;;;;;;;;;5096937;28;20413;-76
2022/04/05 00:17:20;;;;;;;10.57;2.45;;;;;;;;;;5098662;28;20039;-76
2022/04/05 00:19:50;;;;;;;14.73;2.63;;;;;;;;;;5098147;28;20043;-76
2022/04/05 00:22:20;;;;;;;5.80;2.40;;;;;;;;;;5098416;28;20044;-75
2022/04/05 00:24:51;;;;;;;11.65;4.30;;;;;;;;;;5098404;28;20107;-74
2022/04/05 00:27:22;;;;;;;7.97;2.80;;;;;;;;;;5098543;28;20044;-77
2022/04/05 00:29:52;;;;;;;10.90;3.08;;;;;;;;;;5096737;28;20059;-77
2022/04/05 00:32:22;;;;;;;13.23;3.05;;;;;;;;;;5089464;28;20056;-76
2022/04/05 00:34:52;;;;;;;10.15;3.15;;;;;;;;;;5089078;28;20059;-80
2022/04/05 00:37:22;;;;;;;14.48;3.10;;;;;;;;;;5088166;28;20048;-82
2022/04/05 00:39:52;;;;;;;8.15;3.40;;;;;;;;;;5069774;28;20055;-77
2022/04/05 00:42:22;;;;;;;5.70;3.35;;;;;;;;;;5081529;28;20055;-77
2022/04/05 00:44:51;;;;;;;4.57;3.05;;;;;;;;;;5104764;28;20036;-77
2022/04/05 00:47:23;;;;;;;15.15;3.65;;;;;;;;;;5101546;28;20104;-76
2022/04/05 00:49:54;;;;;;;7.10;3.35;;;;;;;;;;5105130;28;20371;-77
2022/04/05 00:52:24;;;;;;;7.85;3.38;;;;;;;;;;5106577;28;20051;-78
2022/04/05 00:54:56;;;;;;;8.90;3.08;;;;;;;;;;5109571;28;20414;-76
2022/04/05 00:57:28;;;;;;;8.88;3.17;;;;;;;;;;5109280;28;20047;-76
2022/04/05 01:00:04;;;;;;;12.57;4.88;;;;;;;;;;5107160;28;20055;-77
2022/04/05 01:02:39;;;;;;;12.80;3.38;;;;;;;;;;5108896;28;20048;-76
2022/04/05 01:05:09;;;;;;;16.13;3.67;;;;;;;;;;5107989;28;20405;-76
2022/04/05 01:07:45;;;;;;;8.45;3.42;;;;;;;;;;5109109;28;20062;-76
2022/04/05 01:10:16;;;;;;;7.18;3.05;;;;;;;;;;5108710;28;20048;-77
2022/04/05 01:12:48;;;;;;;12.57;3.55;;;;;;;;;;5109019;28;20055;-76
2022/04/05 01:15:18;;;;;;;13.52;3.15;;;;;;;;;;5108471;28;20054;-77
2022/04/05 01:17:48;;;;;;;19.85;3.60;;;;;;;;;;5090782;28;20052;-76
2022/04/05 01:20:18;;;;;;;6.47;3.38;;;;;;;;;;5108889;28;20055;-76
2022/04/05 01:22:57;;;;;;;10.25;3.60;;;;;;;;;;5108974;28;20426;-76
2022/04/05 01:25:27;;;;;;;4.45;3.45;;;;;;;;;;5108322;28;20044;-76
2022/04/05 01:27:57;;;;;;;11.95;3.55;;;;;;;;;;5108425;28;20044;-76
2022/04/05 01:30:27;;;;;;;6.32;4.03;;;;;;;;;;5107930;28;20601;-76
2022/04/05 01:32:59;;;;;;;11.25;4.35;;;;;;;;;;5108566;28;20591;-76
2022/04/05 01:35:29;;;;;;;12.13;3.92;;;;;;;;;;5108712;28;20047;-76
2022/04/05 01:37:59;;;;;;;25.45;4.38;;;;;;;;;;5108292;28;20494;-76
2022/04/05 01:40:29;;;;;;;5.10;3.05;;;;;;;;;;5090935;28;20048;-76
2022/04/05 01:43:00;;;;;;;12.57;3.65;;;;;;;;;;5108974;28;20110;-76
2022/04/05 01:45:30;;;;;;;9.32;3.35;;;;;;;;;;5110227;28;20544;-76
2022/04/05 01:48:00;;;;;;;16.50;3.60;;;;;;;;;;5110233;28;20039;-76
2022/04/05 01:50:31;;;;;;;12.68;3.67;;;;;;;;;;5110553;28;20048;-76
2022/04/05 01:53:01;;;;;;;21.05;3.97;;;;;;;;;;5117646;28;20046;-76
2022/04/05 01:55:31;;;;;;;21.42;4.00;;;;;;;;;;5115874;28;20035;-76
2022/04/05 01:58:02;;;;;;;16.55;3.97;;;;;;;;;;5115457;28;20031;-76
2022/04/05 02:00:33;;;;;;;12.50;3.92;;;;;;;;;;5114920;28;20055;-76
2022/04/05 02:03:04;;;;;;;15.75;4.22;;;;;;;;;;5114183;28;20047;-76
2022/04/05 02:05:34;;;;;;;13.43;3.78;;;;;;;;;;5108581;28;20051;-76
2022/04/05 02:08:04;;;;;;;27.88;3.58;;;;;;;;;;5089532;28;20407;-76
2022/04/05 02:10:33;;;;;;;20.63;3.75;;;;;;;;;;5108458;28;20513;-77
2022/04/05 02:13:05;;;;;;;17.98;3.80;;;;;;;;;;5088280;28;20047;-76
2022/04/05 02:15:39;;;;;;;18.38;3.97;;;;;;;;;;5088363;28;20078;-76
2022/04/05 02:18:10;;;;;;;14.18;4.25;;;;;;;;;;5107729;28;20047;-77
2022/04/05 02:20:44;;;;;;;25.48;4.10;;;;;;;;;;5088221;28;20087;-77
2022/04/05 02:23:17;;;;;;;16.65;4.68;;;;;;;;;;5088235;28;20052;-77
2022/04/05 02:25:59;;;;;;;16.27;4.20;;;;;;;;;;5088244;28;20078;-78
2022/04/05 02:28:33;;;;;;;24.27;4.60;;;;;;;;;;5088478;28;20055;-76
2022/04/05 02:31:09;;;;;;;20.83;4.75;;;;;;;;;;5088011;28;20051;-76
2022/04/05 02:33:41;;;;;;;16.73;5.53;;;;;;;;;;5088953;28;20052;-77
2022/04/05 02:36:20;;;;;;;15.73;4.68;;;;;;;;;;5088287;28;20058;-76
2022/04/05 02:38:53;;;;;;;21.83;4.50;;;;;;;;;;5088421;28;20074;-77
2022/04/05 02:41:25;;;;;;;48.45;5.22;;;;;;;;;;5088483;28;20513;-76
2022/04/05 02:43:56;;;;;;;40.65;5.55;;;;;;;;;;5088505;28;20058;-76
2022/04/05 02:46:27;;;;;;;111.95;8.82;;;;;;;;;;5107050;28;20048;-74
2022/04/05 02:48:59;;;;;;;90.38;5.55;;;;;;;;;;5105680;28;20047;-76
2022/04/05 02:51:34;;;;;;;19.35;3.90;;;;;;;;;;5089015;28;20690;-75
2022/04/05 02:54:12;;;;;;;17.67;3.80;;;;;;;;;;5088172;28;20048;-75
2022/04/05 02:56:43;;;;;;;10.38;3.38;;;;;;;;;;5088468;28;20525;-74
2022/04/05 02:59:15;;;;;;;23.70;4.13;;;;;;;;;;5087480;28;20058;-76
2022/04/05 03:01:47;;;;;;;20.13;3.40;;;;;;;;;;5088001;28;20047;-75
2022/04/05 03:04:20;;;;;;;12.88;3.00;;;;;;;;;;5088013;28;20059;-75
2022/04/05 03:06:52;;;;;;;31.30;3.70;;;;;;;;;;5088243;28;20059;-75
2022/04/05 03:09:25;;;;;;;14.07;3.63;;;;;;;;;;5087313;28;20063;-75
2022/04/05 03:11:56;;;;;;;8.60;3.17;;;;;;;;;;5088003;28;20051;-74
2022/04/05 03:14:27;;;;;;;20.23;2.83;;;;;;;;;;5087896;28;20293;-74
2022/04/05 03:16:59;;;;;;;13.25;2.17;;;;;;;;;;5087684;28;20048;-75
2022/04/05 03:19:30;;;;;;;7.35;2.20;;;;;;;;;;5106383;28;20047;-76
2022/04/05 03:22:00;;;;;;;4.35;2.13;;;;;;;;;;5106564;28;20048;-76
2022/04/05 03:24:30;;;;;;;9.20;2.13;;;;;;;;;;5109876;28;20073;-75
2022/04/05 03:27:00;;;;;;;12.90;2.63;;;;;;;;;;5092008;28;20101;-75
2022/04/05 03:29:30;;;;;;;19.33;2.58;;;;;;;;;;5091628;28;20085;-74
2022/04/05 03:32:00;;;;;;;11.07;2.50;;;;;;;;;;5091766;28;20043;-75
2022/04/05 03:34:31;;;;;;;11.88;2.80;;;;;;;;;;5091758;28;20050;-75
2022/04/05 03:37:01;;;;;;;7.55;2.17;;;;;;;;;;5091755;28;20056;-75
2022/04/05 03:39:31;;;;;;;19.98;2.83;;;;;;;;;;5091927;28;20062;-74
2022/04/05 03:42:01;;;;;;;17.23;3.58;;;;;;;;;;5091718;28;20055;-75
2022/04/05 03:44:31;;;;;;;16.85;2.50;;;;;;;;;;5092194;28;20399;-75
2022/04/05 03:47:01;;;;;;;12.35;2.22;;;;;;;;;;5090951;28;20048;-75
2022/04/05 03:49:33;;;;;;;13.60;2.42;;;;;;;;;;5091569;28;20051;-74
2022/04/05 03:52:04;;;;;;;21.15;2.80;;;;;;;;;;5091437;28;20056;-76
2022/04/05 03:54:37;;;;;;;20.90;2.95;;;;;;;;;;5091469;28;20514;-74
2022/04/05 03:57:12;;;;;;;7.30;2.30;;;;;;;;;;5091457;28;20063;-74
2022/04/05 03:59:42;;;;;;;8.90;2.03;;;;;;;;;;5091102;28;20058;-75
2022/04/05 04:02:12;;;;;;;12.50;2.42;;;;;;;;;;5110869;28;20284;-75
2022/04/05 04:04:43;;;;;;;12.90;2.15;;;;;;;;;;5090632;28;20044;-76
2022/04/05 04:07:14;;;;;;;16.67;2.20;;;;;;;;;;5091091;28;20510;-75
2022/04/05 04:09:45;;;;;;;13.93;2.38;;;;;;;;;;5091071;28;20682;-74
2022/04/05 04:12:15;;;;;;;22.13;2.20;;;;;;;;;;5090397;28;20054;-75
2022/04/05 04:14:45;;;;;;;28.00;2.83;;;;;;;;;;5110021;28;20042;-75
2022/04/05 04:17:20;;;;;;;7.57;2.30;;;;;;;;;;5090379;28;20544;-75
2022/04/05 04:19:50;;;;;;;15.93;2.33;;;;;;;;;;5109775;28;20043;-75
2022/04/05 04:22:22;;;;;;;14.25;2.55;;;;;;;;;;5090866;28;20429;-76
2022/04/05 04:24:53;;;;;;;17.90;2.58;;;;;;;;;;5091275;28;20055;-74
2022/04/05 04:27:24;;;;;;;27.35;2.95;;;;;;;;;;5110224;28;20047;-76
2022/04/05 04:29:54;;;;;;;20.35;2.50;;;;;;;;;;5091812;28;20056;-75
2022/04/05 04:32:24;;;;;;;16.52;2.15;;;;;;;;;;5109284;28;20494;-74
2022/04/05 04:34:54;;;;;;;7.75;2.08;;;;;;;;;;5107785;28;20052;-75
2022/04/05 04:37:24;;;;;;;8.82;2.08;;;;;;;;;;5108566;28;20054;-74
2022/04/05 04:39:54;;;;;;;13.02;2.65;;;;;;;;;;5109175;28;20047;-75
2022/04/05 04:42:23;;;;;;;8.10;2.70;;;;;;;;;;5109136;28;20044;-75
2022/04/05 04:44:53;;;;;;;15.00;2.50;;;;;;;;;;5090207;28;20074;-75
2022/04/05 04:47:23;;;;;;;11.98;2.00;;;;;;;;;;5108445;28;20048;-76
2022/04/05 04:49:53;;;;;;;18.55;2.40;;;;;;;;;;5109455;28;20058;-75
2022/04/05 04:52:24;;;;;;;26.80;2.85;;;;;;;;;;5108568;28;20048;-74
2022/04/05 04:54:54;;;;;;;29.35;2.83;;;;;;;;;;5109348;28;20035;-76
2022/04/05 04:57:25;;;;;;;25.88;2.47;;;;;;;;;;5108525;28;20494;-75
2022/04/05 04:59:55;;;;;;;;;;;;;;;;;;5109557;28;20047;-75
2022/04/05 05:02:25;;;;;;;14.02;3.67;;;;;;;;;;5108610;28;19930;-75
2022/04/05 05:04:55;;;;;;;13.23;2.60;;;;;;;;;;5108488;28;20048;-75
2022/04/05 05:07:25;;;;;;;8.45;2.60;;;;;;;;;;5108148;28;20047;-75
2022/04/05 05:09:55;;;;;;;20.55;2.75;;;;;;;;;;5108160;28;20051;-75
2022/04/05 05:12:25;;;;;;;14.82;3.00;;;;;;;;;;5108770;28;20524;-74
2022/04/05 05:14:55;;;;;;;13.13;2.55;;;;;;;;;;5108334;28;20056;-76
2022/04/05 05:17:24;;;;;;;19.98;2.95;;;;;;;;;;5089632;28;20533;-75
2022/04/05 05:19:54;;;;;;;12.10;2.88;;;;;;;;;;5108076;28;20040;-75
2022/04/05 05:22:24;;;;;;;18.35;2.70;;;;;;;;;;5108249;28;20047;-74
2022/04/05 05:24:54;;;;;;;13.18;2.70;;;;;;;;;;5107538;28;20055;-75
2022/04/05 05:27:24;;;;;;;11.65;2.92;;;;;;;;;;5108602;28;20055;-74
2022/04/05 05:29:54;;;;;;;13.75;3.40;;;;;;;;;;5108087;28;20039;-75
2022/04/05 05:32:24;;;;;;;14.93;3.40;;;;;;;;;;5107480;28;20494;-74
2022/04/05 05:34:54;;;;;;;10.00;2.70;;;;;;;;;;5108582;28;20403;-75
2022/04/05 05:37:24;;;;;;;6.22;2.75;;;;;;;;;;5090155;28;20051;-76
2022/04/05 05:39:54;;;;;;;22.23;3.40;;;;;;;;;;5105770;28;20047;-75
2022/04/05 05:42:24;;;;;;;9.68;2.70;;;;;;;;;;5107706;28;20059;-74
2022/04/05 05:44:53;;;;;;;9.35;2.67;;;;;;;;;;5108279;28;20055;-76
2022/04/05 05:47:24;;;;;;;11.18;2.72;;;;;;;;;;5107840;28;20055;-76
2022/04/05 05:49:54;;;;;;;11.60;2.55;;;;;;;;;;5089331;28;20059;-75
2022/04/05 05:52:24;;;;;;;11.60;3.10;;;;;;;;;;5108074;28;20050;-75
2022/04/05 05:54:54;;;;;;;12.93;3.03;;;;;;;;;;5089326;28;20498;-75
2022/04/05 05:57:24;;;;;;;12.13;3.05;;;;;;;;;;5107615;28;20047;-76
2022/04/05 05:59:54;;;;;;;13.23;2.60;;;;;;;;;;5107908;28;20035;-75
2022/04/05 06:02:23;;;;;;;13.60;2.70;;;;;;;;;;5107453;28;20498;-75
2022/04/05 06:04:53;;;;;;;12.30;2.67;;;;;;;;;;5107254;28;20502;-77
2022/04/05 06:07:24;;;;;;;;;;;;;;;;;;5107973;28;20478;-75
2022/04/05 06:09:54;;;;;;;19.33;2.53;;;;;;;;;;5107349;28;19927;-77
2022/04/05 06:12:24;;;;;;;19.97;2.97;;;;;;;;;;5107658;28;20051;-75
2022/04/05 06:14:54;;;;;;;24.30;3.40;;;;;;;;;;5107166;28;20044;-76
2022/04/05 06:17:24;;;;;;;16.27;2.60;;;;;;;;;;5106786;28;20047;-75
2022/04/05 06:19:54;;;;;;;8.73;2.28;;;;;;;;;;5107297;28;20067;-76
2022/04/05 06:22:24;;;;;;;20.40;2.63;;;;;;;;;;5106736;28;20044;-75
2022/04/05 06:24:54;;;;;;;16.60;2.90;;;;;;;;;;5107609;28;20063;-75
2022/04/05 06:27:24;;;;;;;9.07;3.05;;;;;;;;;;5106491;28;20062;-76
2022/04/05 06:29:53;;;;;;;12.00;2.85;;;;;;;;;;5106870;28;20054;-75
2022/04/05 06:32:23;;;;;;;14.73;2.40;;;;;;;;;;5106902;28;20043;-74
2022/04/05 06:34:53;;;;;;;15.50;2.60;;;;;;;;;;5088484;28;20494;-75
2022/04/05 06:37:23;;;;;;;10.13;2.95;;;;;;;;;;5106371;28;20047;-75
2022/04/05 06:39:55;;;;;;;15.23;2.65;;;;;;;;;;5106676;28;20048;-75
2022/04/05 06:42:26;;;;;;;15.85;2.80;;;;;;;;;;5107252;28;20044;-75
2022/04/05 06:44:57;;;;;;;16.05;3.53;;;;;;;;;;5107257;28;20046;-76
2022/04/05 06:47:26;;;;;;;11.75;2.70;;;;;;;;;;5106646;28;20050;-75
2022/04/05 06:49:56;;;;;;;14.02;2.63;;;;;;;;;;5106945;28;20433;-76
2022/04/05 06:52:26;;;;;;;12.02;3.13;;;;;;;;;;5106245;28;20129;-75
2022/04/05 06:54:56;;;;;;;22.38;3.00;;;;;;;;;;5106750;28;20059;-75
2022/04/05 06:57:26;;;;;;;30.65;3.08;;;;;;;;;;5106754;28;20054;-75
2022/04/05 06:59:58;;;;;;;23.23;3.88;;;;;;;;;;5106002;28;20059;-76
2022/04/05 07:02:28;;;;;;;24.80;3.45;;;;;;;;;;5106590;28;20070;-75
2022/04/05 07:04:59;;;;;;;12.10;3.37;;;;;;;;;;5106733;28;20499;-75
2022/04/05 07:07:28;;;;;;;12.65;3.05;;;;;;;;;;5106869;28;20305;-74
2022/04/05 07:09:58;;;;;;;20.50;3.40;;;;;;;;;;5107069;28;20046;-75
2022/04/05 07:12:28;;;;;;;24.77;3.05;;;;;;;;;;5088043;28;20051;-75
2022/04/05 07:14:58;;;;;;;24.65;3.90;;;;;;;;;;5106566;28;20051;-75
2022/04/05 07:17:28;;;;;;;15.75;3.88;;;;;;;;;;5107005;28;20059;-75
2022/04/05 07:20:18;;;;;;;15.70;3.50;;;;;;;;;;5106392;28;20047;-75
2022/04/05 07:22:49;;;;;;;12.02;2.97;;;;;;;;;;5106801;28;20043;-76
2022/04/05 07:25:20;;;;;;;22.33;3.30;;;;;;;;;;5087844;28;20059;-74
2022/04/05 07:27:51;;;;;;;24.23;3.45;;;;;;;;;;5087475;28;20055;-75
2022/04/05 07:30:21;;;;;;;16.55;3.58;;;;;;;;;;5106847;28;20067;-76
2022/04/05 07:32:52;;;;;;;25.88;3.60;;;;;;;;;;5106822;28;20049;-76
2022/04/05 07:35:21;;;;;;;14.25;3.35;;;;;;;;;;5106714;28;20501;-75
2022/04/05 07:37:52;;;;;;;14.55;3.10;;;;;;;;;;5107367;28;20051;-76
2022/04/05 07:40:21;;;;;;;28.55;3.63;;;;;;;;;;5106544;28;20047;-75
2022/04/05 07:42:51;;;;;;;17.80;3.15;;;;;;;;;;5106669;28;20054;-76
2022/04/05 07:45:21;;;;;;;19.10;3.35;;;;;;;;;;5105968;28;20054;-76
2022/04/05 07:47:51;;;;;;;15.98;3.00;;;;;;;;;;5106885;28;20054;-75
2022/04/05 07:50:21;;;;;;;20.63;3.20;;;;;;;;;;5106256;28;20130;-74
2022/04/05 07:52:53;;;;;;;21.08;3.53;;;;;;;;;;5106636;28;20051;-77
2022/04/05 07:55:24;;;;;;;25.67;3.10;;;;;;;;;;5088361;28;20106;-75
2022/04/05 07:57:56;;;;;;;17.63;3.35;;;;;;;;;;5106361;28;20048;-76
2022/04/05 08:00:28;;;;;;;;;;;;;;;;;;5106944;28;20051;-75
2022/04/05 08:02:58;;;;;;;14.15;3.40;;;;;;;;;;5107262;28;20382;-77
2022/04/05 08:05:28;;;;;;;15.65;2.28;;;;;;;;;;5088555;28;20051;-77
2022/04/05 08:07:58;;;;;;;17.30;2.60;;;;;;;;;;5106803;28;20047;-77
2022/04/05 08:10:29;;;;;;;13.00;2.53;;;;;;;;;;5107195;28;20288;-75
2022/04/05 08:13:00;;;;;;;17.35;2.83;;;;;;;;;;5090529;28;20052;-76
2022/04/05 08:15:31;;;;;;;23.98;3.25;;;;;;;;;;5109877;28;20043;-75
2022/04/05 08:18:02;;;;;;;19.73;3.00;;;;;;;;;;5109540;28;20040;-75
2022/04/05 08:20:34;;;;;;;;;;;;;;;;;;5110767;28;20608;-75
2022/04/05 08:23:04;;;;;;;19.33;3.08;;;;;;;;;;5109785;28;19920;-75
2022/04/05 08:25:34;;;;;;;12.65;2.85;;;;;;;;;;5109834;28;20044;-75
2022/04/05 08:28:05;;;;;;;27.48;3.50;;;;;;;;;;5107440;28;20058;-74
2022/04/05 08:30:35;;;;;;;;;;;;;;;;;;5110211;28;20047;-76
2022/04/05 08:33:05;;;;;;;9.60;2.80;;;;;;;;;;5109638;28;20413;-76
2022/04/05 08:35:35;;;;;;;19.05;2.80;;;;;;;;;;5109484;28;20050;-76
2022/04/05 08:38:05;;;;;;;14.00;2.72;;;;;;;;;;5109275;28;20048;-74
2022/04/05 08:40:35;;;;;;;25.83;2.92;;;;;;;;;;5109990;28;20055;-75
2022/04/05 08:43:05;;;;;;;18.13;2.70;;;;;;;;;;5109334;28;20050;-75
2022/04/05 08:45:36;;;;;;;30.73;3.10;;;;;;;;;;5091165;28;20051;-74
2022/04/05 08:48:10;;;;;;;19.13;2.60;;;;;;;;;;5109619;28;20043;-75
2022/04/05 08:50:41;;;;;;;10.98;2.33;;;;;;;;;;5109273;28;20043;-75
2022/04/05 08:53:11;;;;;;;23.30;3.35;;;;;;;;;;5106921;28;20051;-76
2022/04/05 08:55:41;;;;;;;19.60;2.83;;;;;;;;;;5106408;28;20044;-75
2022/04/05 08:58:13;;;;;;;19.40;2.88;;;;;;;;;;5105966;28;20047;-75
2022/04/05 09:00:43;;;;;;;14.30;3.20;;;;;;;;;;5107675;28;20063;-76
2022/04/05 09:03:13;;;;;;;25.05;2.85;;;;;;;;;;5108469;28;20489;-75
2022/04/05 09:05:46;;;;;;;10.18;2.60;;;;;;;;;;5108975;28;20055;-76
2022/04/05 09:08:30;;;;;;;17.08;2.80;;;;;;;;;;5109217;28;20113;-76
2022/04/05 09:11:04;;;;;;;14.30;2.80;;;;;;;;;;5091200;28;20532;-76
2022/04/05 09:13:35;;;;;;;12.80;2.90;;;;;;;;;;5108566;28;20046;-76
2022/04/05 09:16:05;;;;;;;13.25;3.08;;;;;;;;;;5108297;28;20113;-76
2022/04/05 09:18:44;;;;;;;19.63;3.10;;;;;;;;;;5108383;28;20051;-77
2022/04/05 09:21:14;;;;;;;19.35;2.83;;;;;;;;;;5108595;28;20495;-77
2022/04/05 09:23:45;;;;;;;25.35;2.90;;;;;;;;;;5109097;28;20051;-75
2022/04/05 09:26:17;;;;;;;20.23;3.60;;;;;;;;;;5108905;28;20047;-75
2022/04/05 09:28:49;;;;;;;12.82;2.90;;;;;;;;;;5107939;28;20498;-74
2022/04/05 09:31:22;;;;;;;26.67;3.60;;;;;;;;;;5107990;28;20048;-75
2022/04/05 09:34:13;;;;;;;14.63;2.65;;;;;;;;;;5108179;28;20051;-75
2022/04/05 09:36:45;;;;;;;23.83;2.80;;;;;;;;;;5089610;28;20510;-77
2022/04/05 09:39:24;;;;;;;26.90;3.45;;;;;;;;;;5107936;28;20414;-76
2022/04/05 09:42:08;;;;;;;26.40;3.00;;;;;;;;;;5108544;28;20043;-75
2022/04/05 09:44:42;;;;;;;10.13;2.25;;;;;;;;;;5090219;28;20048;-77
2022/04/05 09:47:17;;;;;;;13.10;2.92;;;;;;;;;;5108325;28;20032;-75
2022/04/05 09:49:49;;;;;;;10.85;2.53;;;;;;;;;;5108590;28;20612;-76
2022/04/05 09:52:30;;;;;;;15.40;3.03;;;;;;;;;;5108116;28;20055;-79
2022/04/05 09:55:16;;;;;;;22.60;3.05;;;;;;;;;;5090489;28;20062;-76
2022/04/05 09:57:46;;;;;;;17.75;3.22;;;;;;;;;;5108224;28;20494;-77
2022/04/05 10:00:18;;;;;;;26.27;3.90;;;;;;;;;;5088777;28;20047;-77
2022/04/05 10:03:09;;;;;;;18.02;4.57;;;;;;;;;;5090207;28;20054;-77
2022/04/05 10:05:39;;;;;;;19.23;5.63;;;;;;;;;;5107773;28;20040;-77
2022/04/05 10:08:09;;;;;;;22.08;4.60;;;;;;;;;;5107862;28;20040;-76
2022/04/05 10:10:40;;;;;;;28.10;5.47;;;;;;;;;;5107797;28;20047;-76
2022/04/05 10:13:10;;;;;;;16.47;5.47;;;;;;;;;;5107649;28;20043;-76
2022/04/05 10:15:42;;;;;;;16.60;4.47;;;;;;;;;;5108113;28;20047;-77
2022/04/05 10:18:14;;;;;;;32.17;4.20;;;;;;;;;;5108000;28;20062;-77
2022/04/05 10:20:49;;;;;;;17.80;3.65;;;;;;;;;;5107780;28;20051;-77
2022/04/05 10:23:22;;;;;;;13.32;3.65;;;;;;;;;;5107170;28;20047;-77
2022/04/05 10:25:57;;;;;;;26.20;5.47;;;;;;;;;;5107425;28;20517;-76
2022/04/05 10:28:34;;;;;;;14.13;3.45;;;;;;;;;;5088996;28;20054;-77
2022/04/05 10:31:27;;;;;;;17.73;3.63;;;;;;;;;;5107383;28;20047;-77
2022/04/05 10:34:19;;;;;;;21.55;3.40;;;;;;;;;;5088834;28;20130;-76
2022/04/05 10:37:18;;;;;;;19.73;4.32;;;;;;;;;;5087706;28;20414;-77
2022/04/05 10:39:57;;;;;;;21.98;3.35;;;;;;;;;;5082462;28;20062;-77
2022/04/05 10:42:47;;;;;;;24.77;6.75;;;;;;;;;;5094688;28;20055;-75
2022/04/05 10:45:21;;;;;;;18.83;3.40;;;;;;;;;;5095857;28;20094;-76
2022/04/05 10:48:18;;;;;;;31.27;4.75;;;;;;;;;;5087119;28;20055;-79
2022/04/05 10:51:03;;;;;;;22.30;3.53;;;;;;;;;;5078250;28;20047;-75
2022/04/05 10:53:41;;;;;;;20.70;2.65;;;;;;;;;;5096048;28;20051;-77
2022/04/05 10:56:12;;;;;;;16.77;2.88;;;;;;;;;;5101723;28;20043;-76
2022/04/05 10:58:47;;;;;;;21.13;3.05;;;;;;;;;;5107327;28;20054;-75
2022/04/05 11:01:23;;;;;;;22.77;3.10;;;;;;;;;;5079710;28;20059;-75
2022/04/05 11:04:17;;;;;;;14.07;2.83;;;;;;;;;;5086832;28;20055;-76
2022/04/05 11:06:59;;;;;;;13.40;2.40;;;;;;;;;;5084244;28;20055;-76
2022/04/05 11:09:40;;;;;;;18.60;3.17;;;;;;;;;;5087162;28;20055;-76
2022/04/05 11:12:31;;;;;;;46.22;4.97;;;;;;;;;;5116668;28;20047;-76
2022/04/05 11:15:07;;;;;;;23.63;3.38;;;;;;;;;;5107439;28;20055;-75
2022/04/05 11:17:38;;;;;;;25.80;2.90;;;;;;;;;;5105650;28;20044;-73
2022/04/05 11:20:10;;;;;;;24.77;2.75;;;;;;;;;;5107698;28;20059;-77
2022/04/05 11:22:40;;;;;;;19.20;2.85;;;;;;;;;;5097191;28;20430;-78
2022/04/05 11:25:14;;;;;;;23.35;3.25;;;;;;;;;;5094412;28;20044;-77
2022/04/05 11:27:45;;;;;;;17.65;2.72;;;;;;;;;;5086542;28;20051;-77
2022/04/05 11:30:51;;;;;;;13.35;3.38;;;;;;;;;;5086228;28;20519;-76
2022/04/05 11:33:31;;;;;;;22.80;3.08;;;;;;;;;;5087036;28;20067;-77
2022/04/05 11:36:10;;;;;;;15.88;3.15;;;;;;;;;;5088191;28;20044;-77
2022/04/05 11:38:46;;;;;;;18.45;2.72;;;;;;;;;;5086315;28;20521;-81
2022/04/05 11:41:29;;;;;;;15.75;3.00;;;;;;;;;;5086753;28;20052;-77
2022/04/05 11:44:02;;;;;;;19.90;3.25;;;;;;;;;;5086808;28;20036;-77
2022/04/05 11:46:35;;;;;;;16.08;2.85;;;;;;;;;;5090287;28;20506;-77
2022/04/05 11:49:08;;;;;;;25.98;3.53;;;;;;;;;;5090089;28;20048;-77
2022/04/05 11:51:45;;;;;;;17.00;2.88;;;;;;;;;;5090477;28;20055;-78
2022/04/05 11:54:24;;;;;;;17.27;3.05;;;;;;;;;;5090122;28;20044;-77
2022/04/05 11:57:02;;;;;;;24.40;2.58;;;;;;;;;;5089702;28;20055;-76
2022/04/05 11:59:33;;;;;;;21.42;3.10;;;;;;;;;;5091491;28;20044;-77
2022/04/05 12:02:03;;;;;;;26.40;3.88;;;;;;;;;;5071205;28;20044;-80
2022/04/05 12:04:34;;;;;;;20.45;3.40;;;;;;;;;;5089528;28;20056;-76
2022/04/05 12:07:04;;;;;;;21.73;3.40;;;;;;;;;;5071206;28;20056;-76
2022/04/05 12:09:36;;;;;;;23.30;3.42;;;;;;;;;;5088757;28;20056;-76
2022/04/05 12:12:08;;;;;;;20.27;2.72;;;;;;;;;;5071359;28;20056;-75
2022/04/05 12:14:38;;;;;;;16.85;3.33;;;;;;;;;;5088912;28;20044;-74
2022/04/05 12:17:10;;;;;;;23.85;3.40;;;;;;;;;;5089419;28;20410;-75
2022/04/05 12:19:42;;;;;;;26.10;2.80;;;;;;;;;;5088068;28;20059;-76
2022/04/05 12:22:18;;;;;;;28.77;3.22;;;;;;;;;;5089636;28;20044;-77
2022/04/05 12:24:53;;;;;;;24.02;3.05;;;;;;;;;;5089626;28;20036;-76
2022/04/05 12:27:27;;;;;;;20.42;3.40;;;;;;;;;;5089834;28;20047;-76
2022/04/05 12:30:00;;;;;;;18.98;3.20;;;;;;;;;;5089171;28;20050;-78
2022/04/05 12:32:38;;;;;;;18.25;2.95;;;;;;;;;;5089330;28;20055;-75
2022/04/05 12:35:09;;;;;;;23.58;3.90;;;;;;;;;;5089193;28;20114;-76
2022/04/05 12:37:40;;;;;;;15.32;2.78;;;;;;;;;;5088518;28;20819;-77
2022/04/05 12:40:24;;;;;;;18.38;2.97;;;;;;;;;;5071309;28;20051;-77
2022/04/05 12:42:55;;;;;;;16.48;3.00;;;;;;;;;;5089728;28;20048;-77
2022/04/05 12:45:29;;;;;;;17.35;2.92;;;;;;;;;;5088844;28;20048;-77
2022/04/05 12:48:11;;;;;;;16.63;3.90;;;;;;;;;;5089287;28;20040;-82
2022/04/05 12:50:49;;;;;;;13.55;2.83;;;;;;;;;;5088194;28;20039;-77
2022/04/05 12:53:25;;;;;;;26.08;3.67;;;;;;;;;;5088529;28;20043;-77
2022/04/05 12:55:58;;;;;;;17.10;2.70;;;;;;;;;;5088190;28;20044;-77
2022/04/05 12:59:05;;;;;;;15.90;2.65;;;;;;;;;;5088594;28;20044;-78
2022/04/05 13:01:35;;;;;;;22.70;2.38;;;;;;;;;;5048243;28;20056;-77
2022/04/05 13:04:06;;;;;;;16.17;2.85;;;;;;;;;;5070346;28;20067;-78
2022/04/05 13:06:36;;;;;;;26.88;4.20;;;;;;;;;;5070118;28;20059;-82
2022/04/05 13:09:14;;;;;;;16.52;2.53;;;;;;;;;;5071334;28;20058;-78
2022/04/05 13:11:44;;;;;;;10.35;2.38;;;;;;;;;;5088588;28;20049;-79
2022/04/05 13:14:16;;;;;;;12.75;2.67;;;;;;;;;;5088528;28;20052;-75
2022/04/05 13:16:48;;;;;;;8.98;2.15;;;;;;;;;;5069549;28;20048;-75
2022/04/05 13:19:21;;;;;;;11.20;2.85;;;;;;;;;;5088286;28;20047;-76
2022/04/05 13:21:53;;;;;;;18.10;2.80;;;;;;;;;;5053208;28;20051;-77
2022/04/05 13:24:37;;;;;;;17.45;2.80;;;;;;;;;;5087523;28;20047;-77
2022/04/05 13:27:08;;;;;;;10.48;2.78;;;;;;;;;;5088186;28;20043;-76
2022/04/05 13:29:43;;;;;;;16.70;2.45;;;;;;;;;;5087590;28;20487;-77
2022/04/05 13:32:18;;;;;;;20.83;2.65;;;;;;;;;;5070735;28;20044;-77
2022/04/05 13:34:49;;;;;;;12.30;2.70;;;;;;;;;;5088096;28;20741;-82
2022/04/05 13:37:21;;;;;;;13.50;2.77;;;;;;;;;;5088365;28;20052;-77
2022/04/05 13:39:59;;;;;;;15.85;2.10;;;;;;;;;;5088184;28;20282;-80
2022/04/05 13:42:29;;;;;;;12.70;2.35;;;;;;;;;;5087690;28;20048;-76
2022/04/05 13:44:59;;;;;;;13.25;2.20;;;;;;;;;;5087497;28;20581;-75
2022/04/05 13:47:28;;;;;;;12.35;2.53;;;;;;;;;;5087406;28;20052;-79
2022/04/05 13:49:59;;;;;;;11.63;2.28;;;;;;;;;;5087717;28;20838;-76
2022/04/05 13:52:28;;;;;;;15.25;2.75;;;;;;;;;;5087608;28;20044;-77
2022/04/05 13:55:04;;;;;;;11.38;2.45;;;;;;;;;;5087857;28;20530;-76
2022/04/05 13:57:35;;;;;;;17.75;2.60;;;;;;;;;;5087243;28;20059;-77
2022/04/05 14:00:06;;;;;;;11.55;1.98;;;;;;;;;;5087709;28;20407;-76
2022/04/05 14:02:40;;;;;;;10.82;2.35;;;;;;;;;;5088003;28;20044;-79
2022/04/05 14:05:10;;;;;;;12.93;2.20;;;;;;;;;;5087588;28;20055;-76
2022/04/05 14:07:40;;;;;;;11.55;2.55;;;;;;;;;;5087342;28;20051;-75
2022/04/05 14:10:13;;;;;;;14.80;2.60;;;;;;;;;;5086510;28;20040;-75
2022/04/05 14:13:02;;;;;;;9.35;1.90;;;;;;;;;;5086361;28;20545;-76
2022/04/05 14:15:33;;;;;;;11.40;2.35;;;;;;;;;;5087258;28;20586;-76
2022/04/05 14:18:02;;;;;;;9.43;1.92;;;;;;;;;;5087005;28;20051;-75
2022/04/05 14:20:33;;;;;;;9.05;2.05;;;;;;;;;;5086855;28;20044;-77
2022/04/05 14:23:03;;;;;;;12.02;2.10;;;;;;;;;;5086843;28;20040;-75
2022/04/05 14:25:33;;;;;;;10.52;2.40;;;;;;;;;;5086612;28;20130;-76
2022/04/05 14:28:04;;;;;;;10.15;2.20;;;;;;;;;;5087679;28;20047;-79
2022/04/05 14:30:34;;;;;;;11.48;2.00;;;;;;;;;;5087075;28;20644;-77
2022/04/05 14:33:05;;;;;;;17.10;2.60;;;;;;;;;;5086652;28;20142;-76
2022/04/05 14:35:35;;;;;;;8.85;2.38;;;;;;;;;;5086780;28;20052;-76
2022/04/05 14:38:08;;;;;;;12.57;2.35;;;;;;;;;;5069034;28;20044;-76
2022/04/05 14:40:38;;;;;;;14.05;2.28;;;;;;;;;;5086638;28;20040;-76
2022/04/05 14:43:08;;;;;;;13.38;2.90;;;;;;;;;;5086255;28;20418;-77
2022/04/05 14:45:41;;;;;;;10.95;1.85;;;;;;;;;;5086680;28;20052;-76
2022/04/05 14:48:11;;;;;;;19.10;2.75;;;;;;;;;;5087172;28;20063;-77
2022/04/05 14:50:42;;;;;;;6.70;1.97;;;;;;;;;;5087076;28;20059;-76
2022/04/05 14:53:17;;;;;;;10.00;2.20;;;;;;;;;;5086790;28;20290;-77
2022/04/05 14:55:47;;;;;;;10.57;2.53;;;;;;;;;;5086092;28;20059;-77
2022/04/05 14:58:17;;;;;;;8.45;2.03;;;;;;;;;;5086735;28;20048;-76
2022/04/05 15:00:47;;;;;;;9.55;2.03;;;;;;;;;;5086280;28;20040;-75
2022/04/05 15:03:18;;;;;;;7.28;2.17;;;;;;;;;;5086400;28;20048;-75
2022/04/05 15:05:48;;;;;;;7.65;2.20;;;;;;;;;;5085627;28;20529;-76